createdAt,value
2023-05-09T00:00:26.856Z,6.20
2023-05-09T00:03:14.984Z,6.20
2023-05-09T00:05:46.321Z,6.50
2023-05-09T00:08:16.433Z,6.40
2023-05-09T00:10:46.729Z,7.10
2023-05-09T00:13:17.073Z,6.50
2023-05-09T00:15:47.416Z,6.00
2023-05-09T00:18:18.021Z,6.90
2023-05-09T00:20:48.149Z,6.50
2023-05-09T00:23:18.477Z,6.20
2023-05-09T00:25:48.535Z,6.70
2023-05-09T00:28:19.508Z,7.60
2023-05-09T00:30:49.612Z,5.80
2023-05-09T00:33:20.423Z,6.90
2023-05-09T00:35:50.650Z,6.30
2023-05-09T00:38:20.946Z,6.30
2023-05-09T00:40:51.776Z,5.80
2023-05-09T00:43:22.047Z,6.80
2023-05-09T00:45:52.303Z,7.20
2023-05-09T00:48:23.479Z,7.30
2023-05-09T00:50:54.202Z,8.50
2023-05-09T00:53:25.696Z,7.10
2023-05-09T00:55:57.995Z,7.40
2023-05-09T00:58:29.577Z,7.70
2023-05-09T01:01:01.711Z,6.70
2023-05-09T01:03:32.547Z,6.90
2023-05-09T01:06:12.755Z,6.70
2023-05-09T01:08:55.540Z,7.90
2023-05-09T01:11:36.448Z,8.00
2023-05-09T01:14:25.119Z,8.20
2023-05-09T01:17:05.730Z,6.10
2023-05-09T01:20:05.357Z,6.90
2023-05-09T01:22:39.358Z,6.70
2023-05-09T01:25:42.170Z,6.80
2023-05-09T01:28:41.627Z,7.00
2023-05-09T01:31:12.339Z,7.40
2023-05-09T01:33:47.963Z,8.30
2023-05-09T01:36:21.165Z,7.40
2023-05-09T01:38:54.020Z,7.00
2023-05-09T01:41:30.371Z,7.20
2023-05-09T01:44:05.881Z,6.80
2023-05-09T01:46:37.715Z,7.30
2023-05-09T01:49:10.973Z,7.20
2023-05-09T01:51:43.953Z,8.00
2023-05-09T01:54:17.342Z,7.20
2023-05-09T01:56:48.505Z,6.60
2023-05-09T01:59:21.233Z,6.50
2023-05-09T02:01:54.494Z,6.80
2023-05-09T02:04:27.280Z,6.60
2023-05-09T02:06:58.748Z,7.50
2023-05-09T02:09:29.173Z,7.10
2023-05-09T02:11:59.424Z,7.90
2023-05-09T02:14:29.672Z,7.50
2023-05-09T02:17:05.714Z,6.90
2023-05-09T02:19:36.900Z,6.70
2023-05-09T02:22:07.297Z,6.60
2023-05-09T02:24:37.823Z,6.50
2023-05-09T02:27:10.274Z,7.00
2023-05-09T02:29:48.574Z,7.50
2023-05-09T02:32:25.121Z,7.60
2023-05-09T02:34:57.864Z,7.40
2023-05-09T02:37:29.188Z,7.10
2023-05-09T02:40:00.148Z,6.60
2023-05-09T02:42:30.923Z,6.60
2023-05-09T02:45:01.181Z,6.60
2023-05-09T02:47:31.595Z,6.30
2023-05-09T02:50:01.825Z,6.60
2023-05-09T02:52:32.691Z,7.80
2023-05-09T02:55:03.723Z,7.60
2023-05-09T02:57:34.441Z,6.50
2023-05-09T03:00:08.986Z,6.60
2023-05-09T03:02:39.747Z,7.20
2023-05-09T03:05:13.524Z,6.20
2023-05-09T03:07:44.477Z,6.80
2023-05-09T03:10:14.821Z,7.70
2023-05-09T03:12:45.096Z,7.20
2023-05-09T03:15:15.962Z,6.60
2023-05-09T03:17:48.483Z,6.60
2023-05-09T03:20:19.286Z,6.10
2023-05-09T03:22:49.518Z,6.30
2023-05-09T03:25:20.090Z,6.60
2023-05-09T03:27:50.305Z,6.70
2023-05-09T03:30:20.925Z,6.90
2023-05-09T03:32:51.915Z,6.90
2023-05-09T03:35:22.712Z,6.70
2023-05-09T03:37:52.882Z,6.50
2023-05-09T03:40:23.073Z,6.00
2023-05-09T03:42:57.676Z,6.50
2023-05-09T03:45:27.988Z,7.10
2023-05-09T03:47:58.577Z,6.70
2023-05-09T03:50:29.784Z,6.70
2023-05-09T03:53:00.966Z,6.40
2023-05-09T03:55:31.453Z,6.40
2023-05-09T03:58:01.692Z,6.00
2023-05-09T04:00:33.078Z,6.20
2023-05-09T04:03:07.779Z,6.50
2023-05-09T04:05:42.660Z,7.40
2023-05-09T04:08:17.136Z,6.70
2023-05-09T04:10:47.272Z,7.60
2023-05-09T04:13:17.545Z,7.20
2023-05-09T04:15:48.439Z,6.90
2023-05-09T04:18:18.848Z,6.20
2023-05-09T04:20:49.157Z,5.90
2023-05-09T04:23:19.414Z,5.50
2023-05-09T04:25:50.789Z,5.40
2023-05-09T04:28:21.565Z,5.20
2023-05-09T04:30:52.806Z,6.30
2023-05-09T04:33:24.437Z,6.70
2023-05-09T04:35:55.184Z,6.10
2023-05-09T04:38:25.240Z,5.90
2023-05-09T04:40:55.744Z,5.70
2023-05-09T04:43:27.412Z,5.90
2023-05-09T04:45:58.077Z,5.60
2023-05-09T04:48:30.145Z,4.60
2023-05-09T04:51:00.404Z,5.40
2023-05-09T04:53:31.389Z,4.50
2023-05-09T04:56:02.474Z,5.10
2023-05-09T04:58:37.672Z,4.90
2023-05-09T05:01:08.813Z,4.60
2023-05-09T05:03:40.003Z,4.10
2023-05-09T05:06:10.556Z,5.10
2023-05-09T05:08:41.233Z,5.00
2023-05-09T05:11:13.022Z,4.70
2023-05-09T05:13:43.443Z,4.60
2023-05-09T05:16:14.182Z,4.90
2023-05-09T05:18:44.631Z,4.60
2023-05-09T05:21:15.755Z,4.70
2023-05-09T05:23:46.528Z,5.50
2023-05-09T05:26:17.128Z,5.00
2023-05-09T05:28:47.565Z,4.50
2023-05-09T05:31:17.902Z,4.40
2023-05-09T05:33:48.528Z,4.90
2023-05-09T05:36:19.216Z,5.00
2023-05-09T05:38:49.519Z,4.80
2023-05-09T05:41:20.305Z,4.60
2023-05-09T05:43:53.419Z,5.00
2023-05-09T05:46:27.511Z,4.40
2023-05-09T05:48:58.061Z,4.70
2023-05-09T05:51:28.559Z,5.20
2023-05-09T05:53:58.775Z,5.10
2023-05-09T05:56:28.999Z,5.30
2023-05-09T05:58:59.672Z,4.80
2023-05-09T06:01:29.939Z,4.90
2023-05-09T06:04:01.327Z,4.80
2023-05-09T06:06:33.864Z,5.40
2023-05-09T06:09:04.399Z,5.50
2023-05-09T06:11:34.732Z,5.90
2023-05-09T06:14:05.015Z,5.80
2023-05-09T06:16:35.579Z,5.40
2023-05-09T06:19:05.873Z,5.00
2023-05-09T06:21:36.056Z,5.90
2023-05-09T06:24:14.131Z,4.70
2023-05-09T06:26:44.861Z,4.70
2023-05-09T06:29:15.465Z,5.00
2023-05-09T06:31:46.094Z,4.40
2023-05-09T06:34:16.225Z,4.00
2023-05-09T06:36:46.492Z,4.50
2023-05-09T06:39:16.973Z,4.90
2023-05-09T06:41:47.657Z,4.70
2023-05-09T06:44:26.235Z,4.40
2023-05-09T06:46:56.701Z,5.60
2023-05-09T06:49:27.114Z,3.90
2023-05-09T06:51:57.582Z,3.90
2023-05-09T06:54:27.847Z,3.60
2023-05-09T06:56:58.316Z,3.70
2023-05-09T06:59:28.786Z,3.70
2023-05-09T07:02:06.894Z,3.30
2023-05-09T07:04:37.347Z,3.50
2023-05-09T07:07:07.739Z,3.40
2023-05-09T07:09:38.052Z,3.20
2023-05-09T07:12:09.025Z,3.10
2023-05-09T07:14:41.253Z,2.50
2023-05-09T07:17:22.018Z,2.90
2023-05-09T07:19:54.200Z,2.60
2023-05-09T07:22:27.066Z,2.70
2023-05-09T07:24:59.417Z,2.90
2023-05-09T07:27:30.047Z,2.80
2023-05-09T07:30:00.669Z,2.80
2023-05-09T07:32:31.332Z,3.30
2023-05-09T07:35:01.955Z,3.20
2023-05-09T07:37:32.410Z,3.10
2023-05-09T07:40:06.495Z,3.00
2023-05-09T07:42:38.858Z,3.00
2023-05-09T07:45:15.461Z,3.00
2023-05-09T07:47:45.985Z,3.40
2023-05-09T07:50:30.657Z,3.10
2023-05-09T07:53:01.264Z,2.80
2023-05-09T07:55:32.373Z,2.70
2023-05-09T07:59:29.517Z,3.10
2023-05-09T08:02:04.580Z,2.70
2023-05-09T08:04:41.885Z,2.70
2023-05-09T08:07:17.951Z,2.60
2023-05-09T08:09:52.912Z,3.00
2023-05-09T08:12:29.878Z,3.40
2023-05-09T08:15:07.066Z,3.00
2023-05-09T08:17:43.299Z,3.10
2023-05-09T08:20:19.296Z,2.70
2023-05-09T08:22:54.639Z,2.30
2023-05-09T08:25:29.783Z,2.30
2023-05-09T08:28:04.338Z,2.50
2023-05-09T08:30:39.512Z,2.70
2023-05-09T08:33:14.502Z,2.10
2023-05-09T08:35:54.002Z,2.40
2023-05-09T08:38:28.812Z,1.90
2023-05-09T08:41:07.063Z,2.60
2023-05-09T08:43:43.637Z,2.00
2023-05-09T08:46:23.460Z,2.10
2023-05-09T08:48:59.346Z,2.10
2023-05-09T08:51:34.630Z,2.60
2023-05-09T08:54:09.588Z,2.20
2023-05-09T08:56:49.955Z,2.30
2023-05-09T08:59:29.435Z,1.90
2023-05-09T09:02:07.596Z,1.90
2023-05-09T09:04:43.568Z,1.90
2023-05-09T09:07:19.307Z,2.30
2023-05-09T09:09:56.177Z,1.60
2023-05-09T09:12:32.652Z,2.20
2023-05-09T09:15:17.521Z,2.00
2023-05-09T09:17:56.819Z,1.60
2023-05-09T09:20:35.250Z,1.70
2023-05-09T09:23:13.947Z,2.00
2023-05-09T09:25:50.932Z,1.90
2023-05-09T09:28:27.808Z,2.00
2023-05-09T09:31:02.626Z,2.30
2023-05-09T09:33:38.886Z,2.30
2023-05-09T09:36:13.452Z,2.00
2023-05-09T09:38:48.464Z,2.00
2023-05-09T09:41:23.469Z,2.10
2023-05-09T09:44:00.029Z,2.30
2023-05-09T09:48:20.336Z,2.00
2023-05-09T09:50:55.396Z,2.60
2023-05-09T09:53:32.143Z,2.30
2023-05-09T09:56:09.270Z,1.80
2023-05-09T09:58:43.898Z,1.70
2023-05-09T10:01:21.031Z,1.70
2023-05-09T10:03:58.047Z,1.90
2023-05-09T10:06:32.747Z,1.60
2023-05-09T10:09:10.043Z,2.00
2023-05-09T10:11:48.928Z,1.80
2023-05-09T10:14:26.166Z,1.90
2023-05-09T10:17:02.455Z,1.70
2023-05-09T10:19:43.950Z,1.90
2023-05-09T10:22:22.255Z,1.80
2023-05-09T10:25:06.669Z,1.70
2023-05-09T10:27:47.061Z,1.80
2023-05-09T10:30:24.566Z,1.80
2023-05-09T10:33:11.799Z,1.80
2023-05-09T10:35:51.159Z,1.90
2023-05-09T10:38:26.890Z,1.90
2023-05-09T10:41:06.416Z,1.80
2023-05-09T10:43:41.487Z,1.50
2023-05-09T10:46:17.981Z,1.90
2023-05-09T10:48:53.335Z,2.00
2023-05-09T10:51:29.456Z,1.80
2023-05-09T10:54:14.349Z,2.20
2023-05-09T10:56:48.718Z,1.80
2023-05-09T10:59:42.099Z,2.20
2023-05-09T11:02:29.476Z,1.90
2023-05-09T11:05:21.887Z,1.50
2023-05-09T11:08:25.320Z,1.80
2023-05-09T11:11:08.656Z,1.90
2023-05-09T11:13:49.215Z,1.50
2023-05-09T11:16:24.027Z,1.90
2023-05-09T11:18:59.097Z,1.70
2023-05-09T11:21:37.486Z,1.70
2023-05-09T11:24:31.152Z,1.70
2023-05-09T11:27:15.713Z,1.50
2023-05-09T11:29:54.526Z,1.70
2023-05-09T11:32:35.574Z,1.40
2023-05-09T11:35:17.683Z,1.10
2023-05-09T11:38:00.446Z,1.70
2023-05-09T11:40:37.415Z,1.60
2023-05-09T11:43:15.589Z,1.80
2023-05-09T11:45:51.329Z,1.80
2023-05-09T11:48:27.837Z,1.70
2023-05-09T11:51:05.203Z,1.90
2023-05-09T11:53:46.889Z,1.60
2023-05-09T11:56:23.264Z,1.40
2023-05-09T11:58:58.217Z,1.60
2023-05-09T12:01:34.646Z,1.70
2023-05-09T12:04:11.079Z,1.40
2023-05-09T12:06:50.458Z,1.60
2023-05-09T12:09:26.316Z,1.80
2023-05-09T12:12:01.187Z,2.00
2023-05-09T12:14:37.316Z,1.60
2023-05-09T12:17:11.877Z,1.60
2023-05-09T12:19:48.264Z,1.50
2023-05-09T12:22:23.185Z,1.70
2023-05-09T12:25:01.675Z,2.10
2023-05-09T12:27:41.437Z,1.90
2023-05-09T12:30:19.797Z,1.40
2023-05-09T12:32:54.425Z,1.50
2023-05-09T12:35:29.268Z,1.40
2023-05-09T12:38:04.799Z,1.50
2023-05-09T12:40:39.395Z,1.50
2023-05-09T12:43:15.074Z,1.50
2023-05-09T12:45:53.476Z,1.50
2023-05-09T12:48:28.625Z,1.60
2023-05-09T12:51:09.491Z,1.50
2023-05-09T12:53:45.104Z,1.80
2023-05-09T12:56:23.210Z,1.70
2023-05-09T12:58:58.833Z,1.60
2023-05-09T13:01:34.842Z,1.80
2023-05-09T13:04:12.671Z,1.50
2023-05-09T13:06:55.896Z,2.00
2023-05-09T13:09:31.571Z,1.90
2023-05-09T13:12:10.058Z,1.70
2023-05-09T13:14:45.171Z,1.60
2023-05-09T13:17:20.639Z,1.60
2023-05-09T13:19:55.381Z,1.60
2023-05-09T13:22:30.237Z,1.50
2023-05-09T13:25:05.254Z,1.30
2023-05-09T13:27:40.601Z,2.70
2023-05-09T13:30:20.342Z,1.60
2023-05-09T13:32:55.339Z,1.60
2023-05-09T13:35:30.393Z,1.60
2023-05-09T13:38:04.921Z,1.50
2023-05-09T13:40:39.670Z,1.60
2023-05-09T13:43:14.418Z,1.60
2023-05-09T13:45:49.507Z,1.70
2023-05-09T13:48:24.286Z,1.60
2023-05-09T13:51:00.065Z,1.80
2023-05-09T13:53:38.133Z,1.80
2023-05-09T13:56:14.379Z,1.80
2023-05-09T13:58:51.225Z,1.50
2023-05-09T14:01:26.028Z,1.50
2023-05-09T14:04:00.952Z,1.60
2023-05-09T14:06:35.375Z,1.80
2023-05-09T14:09:11.416Z,4.80
2023-05-09T14:11:46.309Z,2.60
2023-05-09T14:14:21.262Z,1.80
2023-05-09T14:16:59.325Z,1.90
2023-05-09T14:19:36.413Z,2.00
2023-05-09T14:22:10.820Z,1.60
2023-05-09T14:24:45.640Z,1.90
2023-05-09T14:27:20.327Z,1.90
2023-05-09T14:29:55.426Z,1.60
2023-05-09T14:32:30.053Z,1.70
2023-05-09T14:35:05.067Z,2.30
2023-05-09T14:37:39.740Z,2.30
2023-05-09T14:40:16.463Z,2.20
2023-05-09T14:42:51.807Z,1.70
2023-05-09T14:45:27.538Z,1.80
2023-05-09T14:48:03.524Z,2.00
2023-05-09T14:50:38.361Z,1.70
2023-05-09T14:53:12.929Z,1.80
2023-05-09T14:55:47.443Z,1.50
2023-05-09T14:58:22.609Z,1.80
2023-05-09T15:00:58.111Z,1.70
2023-05-09T15:03:33.183Z,2.10
2023-05-09T15:06:09.333Z,2.00
2023-05-09T15:08:44.077Z,2.00
2023-05-09T15:11:19.433Z,1.90
2023-05-09T15:13:55.801Z,1.60
2023-05-09T15:16:30.479Z,1.80
2023-05-09T15:19:05.825Z,1.90
2023-05-09T15:21:41.588Z,2.10
2023-05-09T15:24:15.985Z,2.20
2023-05-09T15:26:50.451Z,2.10
2023-05-09T15:29:27.188Z,1.80
2023-05-09T15:32:01.970Z,2.10
2023-05-09T15:34:36.310Z,2.00
2023-05-09T15:37:13.619Z,1.80
2023-05-09T15:39:49.001Z,1.70
2023-05-09T15:42:26.626Z,1.90
2023-05-09T15:45:01.159Z,1.80
2023-05-09T15:47:38.470Z,1.90
2023-05-09T15:50:14.683Z,2.00
2023-05-09T15:52:49.158Z,1.90
2023-05-09T15:55:23.433Z,2.10
2023-05-09T15:57:57.645Z,2.00
2023-05-09T16:00:32.461Z,1.90
2023-05-09T16:03:06.871Z,1.90
2023-05-09T16:05:41.633Z,2.00
2023-05-09T16:08:15.941Z,1.70
2023-05-09T16:10:50.336Z,1.80
2023-05-09T16:13:26.071Z,1.70
2023-05-09T16:16:01.224Z,1.70
2023-05-09T16:18:40.032Z,1.60
2023-05-09T16:21:19.849Z,1.80
2023-05-09T16:23:54.814Z,1.80
2023-05-09T16:26:29.291Z,2.10
2023-05-09T16:29:04.944Z,1.80
2023-05-09T16:31:40.043Z,2.10
2023-05-09T16:34:14.397Z,2.10
2023-05-09T16:36:49.147Z,1.90
2023-05-09T16:39:24.074Z,2.00
2023-05-09T16:41:58.851Z,1.90
2023-05-09T16:44:33.671Z,2.00
2023-05-09T16:47:08.360Z,2.20
2023-05-09T16:49:44.241Z,2.30
2023-05-09T16:52:18.575Z,2.00
2023-05-09T16:54:54.791Z,2.30
2023-05-09T16:57:29.577Z,2.20
2023-05-09T17:00:04.429Z,1.80
2023-05-09T17:02:39.686Z,2.00
2023-05-09T17:05:14.717Z,2.00
2023-05-09T17:07:49.482Z,1.90
2023-05-09T17:10:24.032Z,2.00
2023-05-09T17:12:59.013Z,1.90
2023-05-09T17:15:34.429Z,1.60
2023-05-09T17:18:09.160Z,1.70
2023-05-09T17:20:46.560Z,1.90
2023-05-09T17:23:20.856Z,1.70
2023-05-09T17:25:55.446Z,2.00
2023-05-09T17:28:29.660Z,1.70
2023-05-09T17:31:04.083Z,1.70
2023-05-09T17:33:39.913Z,2.10
2023-05-09T17:36:14.590Z,2.20
2023-05-09T17:38:48.944Z,2.10
2023-05-09T17:41:23.147Z,2.50
2023-05-09T17:43:57.741Z,2.10
2023-05-09T17:46:33.084Z,2.00
2023-05-09T17:49:10.244Z,2.70
2023-05-09T17:51:44.935Z,2.40
2023-05-09T17:54:20.418Z,2.50
2023-05-09T17:56:59.393Z,2.50
2023-05-09T17:59:33.912Z,2.90
2023-05-09T18:02:08.146Z,3.00
2023-05-09T18:04:42.656Z,3.00
2023-05-09T18:07:17.047Z,2.90
2023-05-09T18:09:51.356Z,2.50
2023-05-09T18:12:28.950Z,2.90
2023-05-09T18:15:03.677Z,2.70
2023-05-09T18:17:37.998Z,2.60
2023-05-09T18:20:14.358Z,3.10
2023-05-09T18:22:50.022Z,2.70
2023-05-09T18:25:24.776Z,2.90
2023-05-09T18:27:59.300Z,5.10
2023-05-09T18:30:35.132Z,4.40
2023-05-09T18:33:09.552Z,5.00
2023-05-09T18:35:43.900Z,4.80
2023-05-09T18:38:18.479Z,4.30
2023-05-09T18:40:53.007Z,3.90
2023-05-09T18:43:27.450Z,4.10
2023-05-09T18:46:03.348Z,3.50
2023-05-09T18:48:37.767Z,3.60
2023-05-09T18:51:12.084Z,3.60
2023-05-09T18:53:47.796Z,3.20
2023-05-09T18:56:23.086Z,3.20
2023-05-09T18:58:57.521Z,3.50
2023-05-09T19:01:32.054Z,3.10
2023-05-09T19:04:07.618Z,3.60
2023-05-09T19:06:42.641Z,3.70
2023-05-09T19:09:18.995Z,3.90
2023-05-09T19:11:53.897Z,3.30
2023-05-09T19:14:28.255Z,3.20
2023-05-09T19:17:03.009Z,3.40
2023-05-09T19:19:37.756Z,3.40
2023-05-09T19:22:12.642Z,3.40
2023-05-09T19:24:47.181Z,3.80
2023-05-09T19:27:21.591Z,4.20
2023-05-09T19:29:56.063Z,4.00
2023-05-09T19:32:30.717Z,3.80
2023-05-09T19:35:05.320Z,3.60
2023-05-09T19:37:40.103Z,3.20
2023-05-09T19:40:16.061Z,3.80
2023-05-09T19:42:51.010Z,3.40
2023-05-09T19:45:26.530Z,3.20
2023-05-09T19:48:01.669Z,3.30
2023-05-09T19:50:36.146Z,3.40
2023-05-09T19:53:10.927Z,3.30
2023-05-09T19:55:47.929Z,3.50
2023-05-09T19:58:22.792Z,3.20
2023-05-09T20:00:57.268Z,3.40
2023-05-09T20:03:32.079Z,3.90
2023-05-09T20:06:07.833Z,3.50
2023-05-09T20:08:42.849Z,3.10
2023-05-09T20:11:18.471Z,3.30
2023-05-09T20:13:52.968Z,3.60
2023-05-09T20:16:27.765Z,3.30
2023-05-09T20:19:05.496Z,3.70
2023-05-09T20:21:40.592Z,3.10
2023-05-09T20:24:17.743Z,3.20
2023-05-09T20:26:52.495Z,3.30
2023-05-09T20:29:28.277Z,3.30
2023-05-09T20:32:02.975Z,3.40
2023-05-09T20:34:37.687Z,3.30
2023-05-09T20:37:12.788Z,3.00
2023-05-09T20:39:49.313Z,2.60
2023-05-09T20:42:24.619Z,3.30
2023-05-09T20:44:59.268Z,3.30
2023-05-09T20:47:34.085Z,3.10
2023-05-09T20:50:11.391Z,3.40
2023-05-09T20:52:45.924Z,3.50
2023-05-09T20:55:20.895Z,3.40
2023-05-09T20:57:55.525Z,3.00
2023-05-09T21:00:31.752Z,3.40
2023-05-09T21:03:06.598Z,3.70
2023-05-09T21:05:42.318Z,2.90
2023-05-09T21:08:16.706Z,3.30
2023-05-09T21:10:54.536Z,3.60
2023-05-09T21:13:28.977Z,3.90
2023-05-09T21:16:03.521Z,3.30
2023-05-09T21:18:38.206Z,3.50
2023-05-09T21:21:12.592Z,3.60
2023-05-09T21:23:47.053Z,3.40
2023-05-09T21:26:22.965Z,3.50
2023-05-09T21:28:57.243Z,3.60
2023-05-09T21:31:31.607Z,3.90
2023-05-09T21:34:10.040Z,3.50
2023-05-09T21:36:45.429Z,3.20
2023-05-09T21:39:21.192Z,3.50
2023-05-09T21:41:55.371Z,3.20
2023-05-09T21:44:29.609Z,3.40
2023-05-09T21:47:04.078Z,3.20
2023-05-09T21:49:38.388Z,3.30
2023-05-09T21:52:12.697Z,3.30
2023-05-09T21:54:47.811Z,3.40
2023-05-09T21:57:21.973Z,3.50
2023-05-09T22:00:01.212Z,3.50
2023-05-09T22:02:35.800Z,3.10
2023-05-09T22:05:11.504Z,2.70
2023-05-09T22:07:45.948Z,2.60
2023-05-09T22:10:20.594Z,3.20
2023-05-09T22:12:55.037Z,3.40
2023-05-09T22:15:30.596Z,3.40
2023-05-09T22:18:05.105Z,3.50
2023-05-09T22:20:39.723Z,3.40
2023-05-09T22:23:13.976Z,3.60
2023-05-09T22:25:48.173Z,3.00
2023-05-09T22:28:22.594Z,3.60
2023-05-09T22:30:57.096Z,3.50
2023-05-09T22:33:31.505Z,3.40
2023-05-09T22:36:06.982Z,3.70
2023-05-09T22:38:41.185Z,3.60
2023-05-09T22:41:15.895Z,4.00
2023-05-09T22:43:51.769Z,3.60
2023-05-09T22:46:26.224Z,3.60
2023-05-09T22:49:00.561Z,4.10
2023-05-09T22:51:34.975Z,3.90
2023-05-09T22:54:09.281Z,3.60
2023-05-09T22:56:43.445Z,4.30
2023-05-09T22:59:17.825Z,4.20
2023-05-09T23:01:52.892Z,4.30
2023-05-09T23:04:27.242Z,4.00
2023-05-09T23:07:03.093Z,3.80
2023-05-09T23:09:37.296Z,4.20
2023-05-09T23:12:12.953Z,4.10
2023-05-09T23:14:47.611Z,4.20
2023-05-09T23:17:21.964Z,3.90
2023-05-09T23:19:56.127Z,3.20
2023-05-09T23:22:30.437Z,3.90
2023-05-09T23:25:04.870Z,3.70
2023-05-09T23:27:40.755Z,4.00
2023-05-09T23:30:16.406Z,4.10
2023-05-09T23:32:50.912Z,3.80
2023-05-09T23:35:27.306Z,4.60
2023-05-09T23:38:01.562Z,4.50
2023-05-09T23:40:35.729Z,4.50
2023-05-09T23:43:09.848Z,3.90
2023-05-09T23:45:44.010Z,3.60
2023-05-09T23:48:18.314Z,4.20
2023-05-09T23:50:52.657Z,3.80
2023-05-09T23:53:27.385Z,4.20
2023-05-09T23:56:01.786Z,4.40
2023-05-09T23:58:36.098Z,4.40
